createdAt,value
2019-01-11T00:00:57.516Z,11.10
2019-01-11T00:01:57.515Z,9.60
2019-01-11T00:02:57.517Z,9.20
2019-01-11T00:03:57.533Z,9.10
2019-01-11T00:04:57.489Z,9.00
2019-01-11T00:05:57.467Z,9.20
2019-01-11T00:06:57.476Z,9.30
2019-01-11T00:07:57.470Z,8.70
2019-01-11T00:08:57.436Z,8.60
2019-01-11T00:09:57.419Z,8.60
2019-01-11T00:10:57.402Z,9.20
2019-01-11T00:11:57.394Z,8.50
2019-01-11T00:12:57.390Z,9.30
2019-01-11T00:13:57.399Z,9.20
2019-01-11T00:14:57.368Z,9.60
2019-01-11T00:15:57.377Z,8.20
2019-01-11T00:16:57.346Z,8.70
2019-01-11T00:17:57.330Z,9.30
2019-01-11T00:18:57.326Z,8.70
2019-01-11T00:20:03.358Z,8.30
2019-01-11T00:20:58.335Z,8.40
2019-01-11T00:21:57.297Z,8.70
2019-01-11T00:22:57.316Z,9.50
2019-01-11T00:23:57.266Z,8.70
2019-01-11T00:24:57.252Z,9.50
2019-01-11T00:25:57.246Z,8.50
2019-01-11T00:26:57.256Z,8.70
2019-01-11T00:27:57.228Z,9.70
2019-01-11T00:28:57.214Z,8.70
2019-01-11T00:29:57.197Z,8.60
2019-01-11T00:30:57.188Z,10.10
2019-01-11T00:31:57.210Z,8.00
2019-01-11T00:32:57.165Z,9.10
2019-01-11T00:33:57.807Z,10.90
2019-01-11T00:34:57.149Z,8.40
2019-01-11T00:35:57.160Z,8.70
2019-01-11T00:36:57.123Z,9.30
2019-01-11T00:37:57.104Z,8.90
2019-01-11T00:38:57.099Z,8.80
2019-01-11T00:39:57.086Z,9.90
2019-01-11T00:40:57.076Z,8.60
2019-01-11T00:41:57.093Z,8.70
2019-01-11T00:42:57.059Z,8.80
2019-01-11T00:43:57.848Z,8.90
2019-01-11T00:44:57.033Z,9.10
2019-01-11T00:45:57.035Z,9.30
2019-01-11T00:46:57.035Z,9.20
2019-01-11T00:47:57.003Z,9.00
2019-01-11T00:48:56.987Z,9.10
2019-01-11T00:49:56.974Z,9.20
2019-01-11T00:50:56.975Z,9.70
2019-01-11T00:51:56.956Z,9.30
2019-01-11T00:52:56.972Z,9.40
2019-01-11T00:53:56.934Z,9.50
2019-01-11T00:54:56.921Z,10.10
2019-01-11T00:55:56.908Z,11.70
2019-01-11T00:56:56.909Z,11.40
2019-01-11T00:57:56.914Z,10.30
2019-01-11T00:58:56.884Z,10.50
2019-01-11T00:59:57.009Z,11.30
2019-01-11T01:00:56.855Z,11.20
2019-01-11T01:01:56.850Z,11.40
2019-01-11T01:02:56.893Z,12.30
2019-01-11T01:03:56.824Z,11.90
2019-01-11T01:04:56.820Z,14.00
2019-01-11T01:05:56.830Z,12.10
2019-01-11T01:06:56.793Z,12.00
2019-01-11T01:07:56.788Z,13.10
2019-01-11T01:08:56.792Z,13.20
2019-01-11T01:09:56.769Z,13.40
2019-01-11T01:10:56.752Z,12.90
2019-01-11T01:11:56.736Z,11.70
2019-01-11T01:12:56.721Z,13.70
2019-01-11T01:13:56.720Z,14.00
2019-01-11T01:14:56.731Z,13.50
2019-01-11T01:15:56.709Z,13.30
2019-01-11T01:16:56.682Z,14.60
2019-01-11T01:17:56.686Z,12.60
2019-01-11T01:18:56.671Z,12.60
2019-01-11T01:19:56.651Z,12.50
2019-01-11T01:20:56.683Z,13.30
2019-01-11T01:21:56.634Z,12.20
2019-01-11T01:22:56.613Z,13.70
2019-01-11T01:23:56.648Z,12.80
2019-01-11T01:24:56.591Z,14.40
2019-01-11T01:25:56.579Z,13.80
2019-01-11T01:26:56.619Z,13.40
2019-01-11T01:27:56.559Z,13.00
2019-01-11T01:28:56.554Z,13.30
2019-01-11T01:29:56.532Z,12.50
2019-01-11T01:30:56.527Z,14.10
2019-01-11T01:31:56.542Z,15.30
2019-01-11T01:32:56.503Z,14.00
2019-01-11T01:33:56.499Z,13.60
2019-01-11T01:34:56.488Z,14.50
2019-01-11T01:35:56.470Z,16.80
2019-01-11T01:36:56.487Z,14.20
2019-01-11T01:37:56.448Z,12.70
2019-01-11T01:38:56.437Z,13.70
2019-01-11T01:39:56.562Z,13.50
2019-01-11T01:40:56.422Z,14.40
2019-01-11T01:41:56.402Z,14.30
2019-01-11T01:42:56.423Z,12.50
2019-01-11T01:43:56.391Z,14.40
2019-01-11T01:44:56.373Z,13.00
2019-01-11T01:45:56.358Z,13.60
2019-01-11T01:46:56.357Z,12.60
2019-01-11T01:47:56.338Z,14.50
2019-01-11T01:48:56.359Z,12.50
2019-01-11T01:49:56.324Z,13.30
2019-01-11T01:50:56.304Z,14.20
2019-01-11T01:51:56.303Z,13.00
2019-01-11T01:52:56.292Z,13.00
2019-01-11T01:53:56.307Z,14.00
2019-01-11T01:54:56.264Z,14.20
2019-01-11T01:55:56.385Z,13.20
2019-01-11T01:56:56.245Z,12.90
2019-01-11T01:57:56.228Z,14.10
2019-01-11T01:58:56.234Z,13.40
2019-01-11T01:59:56.215Z,15.30
2019-01-11T02:00:56.195Z,13.00
2019-01-11T02:01:56.232Z,17.10
2019-01-11T02:02:56.175Z,14.60
2019-01-11T02:03:56.171Z,16.10
2019-01-11T02:04:56.170Z,14.30
2019-01-11T02:05:56.139Z,16.20
2019-01-11T02:06:56.145Z,14.90
2019-01-11T02:07:56.143Z,13.90
2019-01-11T02:08:56.119Z,16.00
2019-01-11T02:09:56.113Z,14.00
2019-01-11T02:10:56.083Z,17.00
2019-01-11T02:11:56.168Z,14.70
2019-01-11T02:12:56.064Z,13.40
2019-01-11T02:13:56.088Z,14.10
2019-01-11T02:14:56.041Z,13.30
2019-01-11T02:15:56.035Z,13.90
2019-01-11T02:16:56.046Z,15.30
2019-01-11T02:17:56.006Z,13.50
2019-01-11T02:18:56.014Z,13.70
2019-01-11T02:19:56.062Z,14.40
2019-01-11T02:20:55.974Z,13.10
2019-01-11T02:21:55.968Z,15.90
2019-01-11T02:22:55.973Z,17.40
2019-01-11T02:23:55.979Z,16.00
2019-01-11T02:24:55.945Z,17.10
2019-01-11T02:25:55.918Z,16.20
2019-01-11T02:26:55.912Z,16.20
2019-01-11T02:27:55.934Z,15.80
2019-01-11T02:28:55.886Z,16.70
2019-01-11T02:29:55.895Z,19.10
2019-01-11T02:30:55.873Z,17.40
2019-01-11T02:31:55.855Z,18.70
2019-01-11T02:32:55.872Z,20.80
2019-01-11T02:33:55.835Z,17.70
2019-01-11T02:34:55.854Z,20.40
2019-01-11T02:35:55.844Z,20.10
2019-01-11T02:36:55.801Z,20.00
2019-01-11T02:37:55.788Z,21.60
2019-01-11T02:38:55.864Z,21.60
2019-01-11T02:39:55.777Z,22.60
2019-01-11T02:40:55.796Z,21.40
2019-01-11T02:41:55.753Z,21.70
2019-01-11T02:42:55.732Z,22.40
2019-01-11T02:43:55.722Z,22.90
2019-01-11T02:44:55.731Z,24.00
2019-01-11T02:45:55.700Z,22.80
2019-01-11T02:46:55.693Z,22.90
2019-01-11T02:47:55.680Z,24.30
2019-01-11T02:48:55.667Z,25.00
2019-01-11T02:49:55.664Z,28.40
2019-01-11T02:50:55.666Z,25.80
2019-01-11T02:51:55.665Z,25.00
2019-01-11T02:52:55.627Z,24.60
2019-01-11T02:53:55.618Z,29.10
2019-01-11T02:54:55.603Z,28.50
2019-01-11T02:55:55.616Z,28.50
2019-01-11T02:56:55.602Z,26.60
2019-01-11T02:57:55.568Z,27.40
2019-01-11T02:58:55.557Z,27.50
2019-01-11T02:59:55.556Z,29.30
2019-01-11T03:00:55.542Z,29.50
2019-01-11T03:01:55.547Z,31.80
2019-01-11T03:02:55.559Z,33.20
2019-01-11T03:03:55.508Z,31.30
2019-01-11T03:04:55.499Z,29.60
2019-01-11T03:05:55.489Z,32.90
2019-01-11T03:06:55.470Z,32.40
2019-01-11T03:07:55.456Z,31.70
2019-01-11T03:08:55.468Z,34.00
2019-01-11T03:09:55.440Z,31.50
2019-01-11T03:10:55.428Z,37.20
2019-01-11T03:11:55.421Z,32.10
2019-01-11T03:12:55.595Z,37.30
2019-01-11T03:13:55.408Z,36.50
2019-01-11T03:14:55.383Z,39.20
2019-01-11T03:15:55.431Z,38.10
2019-01-11T03:16:55.361Z,39.10
2019-01-11T03:17:55.346Z,37.20
2019-01-11T03:18:55.364Z,37.50
2019-01-11T03:19:55.350Z,38.70
2019-01-11T03:20:55.356Z,39.20
2019-01-11T03:21:55.306Z,36.30
2019-01-11T03:22:55.294Z,37.40
2019-01-11T03:23:55.284Z,36.70
2019-01-11T03:24:55.274Z,39.70
2019-01-11T03:25:55.264Z,40.60
2019-01-11T03:26:55.271Z,38.80
2019-01-11T03:27:55.270Z,37.00
2019-01-11T03:28:55.240Z,39.60
2019-01-11T03:29:55.219Z,38.60
2019-01-11T03:30:55.238Z,39.90
2019-01-11T03:31:55.456Z,38.80
2019-01-11T03:32:55.184Z,37.40
2019-01-11T03:33:55.187Z,37.60
2019-01-11T03:34:55.167Z,37.20
2019-01-11T03:35:55.172Z,35.30
2019-01-11T03:36:55.169Z,38.90
2019-01-11T03:37:55.152Z,36.50
2019-01-11T03:38:55.122Z,35.30
2019-01-11T03:39:55.118Z,36.20
2019-01-11T03:40:55.097Z,32.80
2019-01-11T03:41:55.113Z,35.90
2019-01-11T03:42:55.076Z,33.60
2019-01-11T03:43:55.077Z,32.80
2019-01-11T03:44:55.053Z,36.40
2019-01-11T03:45:55.042Z,34.80
2019-01-11T03:46:55.031Z,34.30
2019-01-11T03:47:55.084Z,35.30
2019-01-11T03:48:55.006Z,33.30
2019-01-11T03:49:55.177Z,35.30
2019-01-11T03:50:55.031Z,31.70
2019-01-11T03:51:54.970Z,34.30
2019-01-11T03:52:54.999Z,35.10
2019-01-11T03:53:54.949Z,35.60
2019-01-11T03:54:54.936Z,36.20
2019-01-11T03:55:54.923Z,37.40
2019-01-11T03:56:54.916Z,33.50
2019-01-11T03:57:54.905Z,37.40
2019-01-11T03:58:54.931Z,33.10
2019-01-11T03:59:54.890Z,36.80
2019-01-11T04:00:54.879Z,35.20
2019-01-11T04:01:54.882Z,36.20
2019-01-11T04:02:54.850Z,40.20
2019-01-11T04:03:54.858Z,38.60
2019-01-11T04:04:54.828Z,35.30
2019-01-11T04:05:54.829Z,34.20
2019-01-11T04:06:54.838Z,31.20
2019-01-11T04:07:54.791Z,32.70
2019-01-11T04:08:55.368Z,34.60
2019-01-11T04:09:54.777Z,34.20
2019-01-11T04:10:54.763Z,31.60
2019-01-11T04:11:54.792Z,32.90
2019-01-11T04:12:54.779Z,31.40
2019-01-11T04:13:54.733Z,34.60
2019-01-11T04:14:54.768Z,30.30
2019-01-11T04:15:54.707Z,34.20
2019-01-11T04:16:54.698Z,31.70
2019-01-11T04:17:54.721Z,31.50
2019-01-11T04:18:54.681Z,32.20
2019-01-11T04:19:54.668Z,29.10
2019-01-11T04:20:54.656Z,31.50
2019-01-11T04:21:54.642Z,30.80
2019-01-11T04:22:54.661Z,31.70
2019-01-11T04:23:54.623Z,29.70
2019-01-11T04:24:54.610Z,31.10
2019-01-11T04:25:54.603Z,32.00
2019-01-11T04:26:54.588Z,28.50
2019-01-11T04:27:54.691Z,29.30
2019-01-11T04:28:54.560Z,32.60
2019-01-11T04:29:54.555Z,32.30
2019-01-11T04:30:55.377Z,31.10
2019-01-11T04:31:54.540Z,29.90
2019-01-11T04:32:54.552Z,30.90
2019-01-11T04:33:54.544Z,31.10
2019-01-11T04:34:54.506Z,29.80
2019-01-11T04:35:54.512Z,28.50
2019-01-11T04:36:54.472Z,30.50
2019-01-11T04:37:54.491Z,29.80
2019-01-11T04:38:54.464Z,30.60
2019-01-11T04:39:54.467Z,29.80
2019-01-11T04:40:54.455Z,31.20
2019-01-11T04:41:54.420Z,34.60
2019-01-11T04:42:54.410Z,30.40
2019-01-11T04:43:54.419Z,28.70
2019-01-11T04:44:54.388Z,28.70
2019-01-11T04:45:54.375Z,28.10
2019-01-11T04:46:54.397Z,28.20
2019-01-11T04:47:54.357Z,30.20
2019-01-11T04:48:54.342Z,28.20
2019-01-11T04:49:54.336Z,29.90
2019-01-11T04:50:54.326Z,30.30
2019-01-11T04:51:54.391Z,31.10
2019-01-11T04:52:54.327Z,29.90
2019-01-11T04:53:54.316Z,26.90
2019-01-11T04:54:54.320Z,29.00
2019-01-11T04:55:54.295Z,25.90
2019-01-11T04:56:54.278Z,27.20
2019-01-11T04:57:54.269Z,27.30
2019-01-11T04:58:54.236Z,29.50
2019-01-11T04:59:54.225Z,29.20
2019-01-11T05:00:54.219Z,29.20
2019-01-11T05:01:54.225Z,26.60
2019-01-11T05:02:54.192Z,31.00
2019-01-11T05:03:54.203Z,30.40
2019-01-11T05:04:54.195Z,27.60
2019-01-11T05:05:54.158Z,29.10
2019-01-11T05:06:54.142Z,29.50
2019-01-11T05:07:54.873Z,27.90
2019-01-11T05:08:54.142Z,29.60
2019-01-11T05:09:54.111Z,29.50
2019-01-11T05:10:54.121Z,30.80
2019-01-11T05:11:54.091Z,27.90
2019-01-11T05:12:54.080Z,30.40
2019-01-11T05:13:54.124Z,33.40
2019-01-11T05:14:54.057Z,67.00
2019-01-11T05:15:54.053Z,41.20
2019-01-11T05:16:54.036Z,59.40
2019-01-11T05:17:54.026Z,34.60
2019-01-11T05:18:54.010Z,30.70
2019-01-11T05:19:54.017Z,33.50
2019-01-11T05:20:54.014Z,32.60
2019-01-11T05:21:53.979Z,32.30
2019-01-11T05:22:53.973Z,33.30
2019-01-11T05:23:53.963Z,32.50
2019-01-11T05:24:53.982Z,32.30
2019-01-11T05:25:53.934Z,32.50
2019-01-11T05:26:54.003Z,32.80
2019-01-11T05:27:53.919Z,34.70
2019-01-11T05:28:53.903Z,33.60
2019-01-11T05:29:53.893Z,33.40
2019-01-11T05:30:53.883Z,40.00
2019-01-11T05:31:54.876Z,32.90
2019-01-11T05:32:53.889Z,34.40
2019-01-11T05:33:53.887Z,33.20
2019-01-11T05:34:53.914Z,32.80
2019-01-11T05:35:53.833Z,35.60
2019-01-11T05:36:53.814Z,34.00
2019-01-11T05:37:53.806Z,34.30
2019-01-11T05:38:53.798Z,36.40
2019-01-11T05:39:53.805Z,34.20
2019-01-11T05:40:53.771Z,30.70
2019-01-11T05:41:53.762Z,37.60
2019-01-11T05:42:53.752Z,35.40
2019-01-11T05:43:53.738Z,39.30
2019-01-11T05:44:53.723Z,34.40
2019-01-11T05:45:53.755Z,35.80
2019-01-11T05:46:53.701Z,40.10
2019-01-11T05:47:53.740Z,66.60
2019-01-11T05:48:53.688Z,150.90
2019-01-11T05:49:53.680Z,199.60
2019-01-11T05:50:53.691Z,46.40
2019-01-11T05:51:53.678Z,44.00
2019-01-11T05:52:53.653Z,46.80
2019-01-11T05:53:53.627Z,45.20
2019-01-11T05:54:53.615Z,39.40
2019-01-11T05:55:53.607Z,43.50
2019-01-11T05:56:53.622Z,44.20
2019-01-11T05:57:53.584Z,45.70
2019-01-11T05:59:00.661Z,45.60
2019-01-11T05:59:53.564Z,42.10
2019-01-11T06:00:53.572Z,46.00
2019-01-11T06:01:53.539Z,44.50
2019-01-11T06:02:53.560Z,46.30
2019-01-11T06:03:53.650Z,46.60
2019-01-11T06:04:53.522Z,47.50
2019-01-11T06:05:53.493Z,50.70
2019-01-11T06:06:53.492Z,49.10
2019-01-11T06:07:53.479Z,50.50
2019-01-11T06:08:53.511Z,53.40
2019-01-11T06:09:53.457Z,53.90
2019-01-11T06:10:53.446Z,66.70
2019-01-11T06:11:53.437Z,54.90
2019-01-11T06:12:53.416Z,55.10
2019-01-11T06:13:53.433Z,55.30
2019-01-11T06:14:53.399Z,57.10
2019-01-11T06:15:53.405Z,61.30
2019-01-11T06:16:53.373Z,57.40
2019-01-11T06:17:53.370Z,60.70
2019-01-11T06:18:53.398Z,188.40
2019-01-11T06:19:53.471Z,221.30
2019-01-11T06:20:53.330Z,86.90
2019-01-11T06:21:53.329Z,71.70
2019-01-11T06:22:53.328Z,69.40
2019-01-11T06:23:53.307Z,68.00
2019-01-11T06:24:53.323Z,72.80
2019-01-11T06:25:53.288Z,68.10
2019-01-11T06:26:53.271Z,58.50
2019-01-11T06:27:53.317Z,65.10
2019-01-11T06:28:53.248Z,66.70
2019-01-11T06:29:53.307Z,66.50
2019-01-11T06:30:53.220Z,69.40
2019-01-11T06:31:53.215Z,67.70
2019-01-11T06:32:53.208Z,71.60
2019-01-11T06:33:53.194Z,69.80
2019-01-11T06:34:53.180Z,69.50
2019-01-11T06:35:53.216Z,66.60
2019-01-11T06:36:53.173Z,66.00
2019-01-11T06:37:53.150Z,82.70
2019-01-11T06:38:53.153Z,70.90
2019-01-11T06:39:53.127Z,71.00
2019-01-11T06:40:53.116Z,78.50
2019-01-11T06:41:53.222Z,73.00
2019-01-11T06:42:53.324Z,72.90
2019-01-11T06:43:53.085Z,90.40
2019-01-11T06:44:53.089Z,92.80
2019-01-11T06:45:53.078Z,94.60
2019-01-11T06:46:53.071Z,75.40
2019-01-11T06:47:53.236Z,72.90
2019-01-11T06:48:53.027Z,81.40
2019-01-11T06:49:53.021Z,85.20
2019-01-11T06:50:53.510Z,76.30
2019-01-11T06:51:53.007Z,73.30
2019-01-11T06:52:53.041Z,76.20
2019-01-11T06:53:52.969Z,77.40
2019-01-11T06:54:52.957Z,79.40
2019-01-11T06:55:52.960Z,80.20
2019-01-11T06:56:52.966Z,73.40
2019-01-11T06:57:52.967Z,71.20
2019-01-11T06:58:52.917Z,68.10
2019-01-11T06:59:52.986Z,77.80
2019-01-11T07:00:52.931Z,88.00
2019-01-11T07:01:52.966Z,74.40
2019-01-11T07:02:52.965Z,82.50
2019-01-11T07:03:53.206Z,72.90
2019-01-11T07:04:52.935Z,89.10
2019-01-11T07:05:52.862Z,77.70
2019-01-11T07:06:52.829Z,77.30
2019-01-11T07:07:52.852Z,81.90
2019-01-11T07:08:52.810Z,80.30
2019-01-11T07:09:52.840Z,81.30
2019-01-11T07:10:52.843Z,527.10
2019-01-11T07:11:52.764Z,172.60
2019-01-11T07:12:52.775Z,100.00
2019-01-11T07:13:52.772Z,81.20
2019-01-11T07:14:52.733Z,83.30
2019-01-11T07:15:52.798Z,72.30
2019-01-11T07:16:52.714Z,77.50
2019-01-11T07:17:52.707Z,70.20
2019-01-11T07:18:52.694Z,63.60
2019-01-11T07:19:52.702Z,63.30
2019-01-11T07:20:52.715Z,62.80
2019-01-11T07:21:52.679Z,76.90
2019-01-11T07:22:52.662Z,67.20
2019-01-11T07:23:52.641Z,63.80
2019-01-11T07:24:52.626Z,65.30
2019-01-11T07:25:52.641Z,58.80
2019-01-11T07:26:52.622Z,61.40
2019-01-11T07:27:52.592Z,64.60
2019-01-11T07:28:52.586Z,61.40
2019-01-11T07:29:52.578Z,57.10
2019-01-11T07:30:52.566Z,61.20
2019-01-11T07:31:52.562Z,63.20
2019-01-11T07:32:52.572Z,62.40
2019-01-11T07:33:52.606Z,65.30
2019-01-11T07:34:52.518Z,56.70
2019-01-11T07:35:52.505Z,62.20
2019-01-11T07:36:52.555Z,64.70
2019-01-11T07:37:52.541Z,64.80
2019-01-11T07:38:52.472Z,67.30
2019-01-11T07:39:52.461Z,72.50
2019-01-11T07:40:52.452Z,64.70
2019-01-11T07:41:52.452Z,72.50
2019-01-11T07:42:52.432Z,61.90
2019-01-11T07:43:52.446Z,70.70
2019-01-11T07:44:52.408Z,66.90
2019-01-11T07:45:52.401Z,69.40
2019-01-11T07:46:52.400Z,72.00
2019-01-11T07:47:52.452Z,69.30
2019-01-11T07:48:52.363Z,280.50
2019-01-11T07:49:52.369Z,256.80
2019-01-11T07:50:52.345Z,111.40
2019-01-11T07:51:52.382Z,67.90
2019-01-11T07:52:52.477Z,67.70
2019-01-11T07:53:52.344Z,72.40
2019-01-11T07:54:52.314Z,69.40
2019-01-11T07:55:52.309Z,67.50
2019-01-11T07:56:52.280Z,65.40
2019-01-11T07:57:52.284Z,68.50
2019-01-11T07:58:52.255Z,66.10
2019-01-11T07:59:52.271Z,69.60
2019-01-11T08:00:52.237Z,73.60
2019-01-11T08:01:52.231Z,72.70
2019-01-11T08:02:52.283Z,59.30
2019-01-11T08:03:52.200Z,62.80
2019-01-11T08:04:52.210Z,56.60
2019-01-11T08:05:52.184Z,65.90
2019-01-11T08:06:52.179Z,59.70
2019-01-11T08:07:52.158Z,62.40
2019-01-11T08:08:52.225Z,56.00
2019-01-11T08:09:52.130Z,52.50
2019-01-11T08:10:52.145Z,57.30
2019-01-11T08:11:52.148Z,57.70
2019-01-11T08:12:52.098Z,56.60
2019-01-11T08:13:52.111Z,52.40
2019-01-11T08:14:52.081Z,54.10
2019-01-11T08:15:52.115Z,47.80
2019-01-11T08:16:52.078Z,52.00
2019-01-11T08:17:52.052Z,52.00
2019-01-11T08:18:52.039Z,53.60
2019-01-11T08:19:52.027Z,51.60
2019-01-11T08:20:56.218Z,46.50
2019-01-11T08:21:52.027Z,48.50
2019-01-11T08:22:52.017Z,49.50
2019-01-11T08:23:52.001Z,50.10
2019-01-11T08:24:51.993Z,48.60
2019-01-11T08:25:51.967Z,51.90
2019-01-11T08:26:51.948Z,48.20
2019-01-11T08:27:51.950Z,45.50
2019-01-11T08:28:51.923Z,49.40
2019-01-11T08:29:52.071Z,44.70
2019-01-11T08:30:51.918Z,46.00
2019-01-11T08:31:51.893Z,46.50
2019-01-11T08:32:51.926Z,44.90
2019-01-11T08:33:51.868Z,46.80
2019-01-11T08:34:51.861Z,46.90
2019-01-11T08:35:51.873Z,50.70
2019-01-11T08:36:51.852Z,48.30
2019-01-11T08:37:51.842Z,45.90
2019-01-11T08:38:51.826Z,51.40
2019-01-11T08:39:51.805Z,190.60
2019-01-11T08:40:51.840Z,188.10
2019-01-11T08:41:51.794Z,102.90
2019-01-11T08:42:51.777Z,68.90
2019-01-11T08:43:51.792Z,53.00
2019-01-11T08:44:51.747Z,52.90
2019-01-11T08:45:51.748Z,53.60
2019-01-11T08:46:51.745Z,51.00
2019-01-11T08:47:51.711Z,51.90
2019-01-11T08:48:51.718Z,48.50
2019-01-11T08:49:51.697Z,48.30
2019-01-11T08:50:51.692Z,46.90
2019-01-11T08:51:51.696Z,48.60
2019-01-11T08:52:51.693Z,42.80
2019-01-11T08:53:51.645Z,51.80
2019-01-11T08:54:51.638Z,51.70
2019-01-11T08:55:51.626Z,54.00
2019-01-11T08:56:51.619Z,54.60
2019-01-11T08:57:51.600Z,47.60
2019-01-11T08:58:51.620Z,53.50
2019-01-11T08:59:51.582Z,46.60
2019-01-11T09:00:51.571Z,49.30
2019-01-11T09:01:51.565Z,55.30
2019-01-11T09:02:51.585Z,51.90
2019-01-11T09:03:51.545Z,53.80
2019-01-11T09:04:51.550Z,51.30
2019-01-11T09:05:51.522Z,48.50
2019-01-11T09:06:51.510Z,51.30
2019-01-11T09:07:51.510Z,53.30
2019-01-11T09:08:51.517Z,53.10
2019-01-11T09:09:51.645Z,52.40
2019-01-11T09:10:51.462Z,55.60
2019-01-11T09:11:51.458Z,55.90
2019-01-11T09:12:51.479Z,56.00
2019-01-11T09:13:51.427Z,55.30
2019-01-11T09:14:51.433Z,57.50
2019-01-11T09:15:51.437Z,51.30
2019-01-11T09:16:51.389Z,53.30
2019-01-11T09:17:51.392Z,53.00
2019-01-11T09:18:51.367Z,55.90
2019-01-11T09:19:51.360Z,51.70
2019-01-11T09:20:51.392Z,50.00
2019-01-11T09:21:51.337Z,49.80
2019-01-11T09:22:51.347Z,56.70
2019-01-11T09:23:51.316Z,54.20
2019-01-11T09:24:51.300Z,52.60
2019-01-11T09:25:51.299Z,63.30
2019-01-11T09:26:51.578Z,107.90
2019-01-11T09:27:51.334Z,134.80
2019-01-11T09:28:51.329Z,71.20
2019-01-11T09:29:51.250Z,61.30
2019-01-11T09:30:51.237Z,60.80
2019-01-11T09:31:51.226Z,50.70
2019-01-11T09:32:51.214Z,51.70
2019-01-11T09:33:51.220Z,53.40
2019-01-11T09:34:51.201Z,52.20
2019-01-11T09:35:51.208Z,50.80
2019-01-11T09:36:51.172Z,55.30
2019-01-11T09:37:51.195Z,50.80
2019-01-11T09:38:51.176Z,49.10
2019-01-11T09:39:51.153Z,50.60
2019-01-11T09:40:51.136Z,52.70
2019-01-11T09:41:51.116Z,51.20
2019-01-11T09:42:51.145Z,54.80
2019-01-11T09:43:51.219Z,47.60
2019-01-11T09:44:51.113Z,54.80
2019-01-11T09:45:51.092Z,48.00
2019-01-11T09:46:51.073Z,51.30
2019-01-11T09:47:51.053Z,50.90
2019-01-11T09:48:51.117Z,45.40
2019-01-11T09:49:51.041Z,55.20
2019-01-11T09:50:51.040Z,54.70
2019-01-11T09:51:51.009Z,54.20
2019-01-11T09:52:51.016Z,49.70
2019-01-11T09:53:50.988Z,51.00
2019-01-11T09:54:51.013Z,214.20
2019-01-11T09:55:50.961Z,154.50
2019-01-11T09:56:50.955Z,104.30
2019-01-11T09:57:50.946Z,59.50
2019-01-11T09:58:50.933Z,53.50
2019-01-11T09:59:50.913Z,51.10
2019-01-11T10:00:50.937Z,57.30
2019-01-11T10:01:50.918Z,47.90
2019-01-11T10:02:50.932Z,57.10
2019-01-11T10:03:50.878Z,61.50
2019-01-11T10:04:50.869Z,54.00
2019-01-11T10:05:50.989Z,53.10
2019-01-11T10:06:50.845Z,54.20
2019-01-11T10:07:50.867Z,63.10
2019-01-11T10:08:51.050Z,65.50
2019-01-11T10:09:50.929Z,58.00
2019-01-11T10:10:50.793Z,58.00
2019-01-11T10:11:50.788Z,61.70
2019-01-11T10:12:50.955Z,65.80
2019-01-11T10:13:51.184Z,61.20
2019-01-11T10:14:50.798Z,60.50
2019-01-11T10:15:50.861Z,66.30
2019-01-11T10:16:50.783Z,66.50
2019-01-11T10:17:50.724Z,65.00
2019-01-11T10:18:50.736Z,67.50
2019-01-11T10:19:50.696Z,77.70
2019-01-11T10:20:51.916Z,60.80
2019-01-11T10:21:50.688Z,60.00
2019-01-11T10:22:50.680Z,57.70
2019-01-11T10:23:50.663Z,67.80
2019-01-11T10:24:50.717Z,59.80
2019-01-11T10:25:50.648Z,65.30
2019-01-11T10:26:50.661Z,63.70
2019-01-11T10:27:50.637Z,62.50
2019-01-11T10:28:50.604Z,63.10
2019-01-11T10:29:50.590Z,58.70
2019-01-11T10:30:50.583Z,66.50
2019-01-11T10:31:50.591Z,60.40
2019-01-11T10:32:50.600Z,61.50
2019-01-11T10:33:50.541Z,60.00
2019-01-11T10:34:50.547Z,77.50
2019-01-11T10:35:50.525Z,94.10
2019-01-11T10:36:50.510Z,83.10
2019-01-11T10:37:50.513Z,64.90
2019-01-11T10:38:50.517Z,104.00
2019-01-11T10:39:50.480Z,62.40
2019-01-11T10:40:50.475Z,60.90
2019-01-11T10:41:50.464Z,59.20
2019-01-11T10:42:50.480Z,60.50
2019-01-11T10:43:50.433Z,67.20
2019-01-11T10:44:50.422Z,65.90
2019-01-11T10:45:50.609Z,66.20
2019-01-11T10:46:50.406Z,62.50
2019-01-11T10:47:50.388Z,73.20
2019-01-11T10:48:50.415Z,74.10
2019-01-11T10:49:50.368Z,73.80
2019-01-11T10:50:50.358Z,84.50
2019-01-11T10:51:50.347Z,74.30
2019-01-11T10:52:50.337Z,71.00
2019-01-11T10:53:50.352Z,86.60
2019-01-11T10:54:50.327Z,78.70
2019-01-11T10:55:50.300Z,84.00
2019-01-11T10:56:50.288Z,78.80
2019-01-11T10:57:50.324Z,97.10
2019-01-11T10:58:50.268Z,108.20
2019-01-11T10:59:50.291Z,105.10
2019-01-11T11:00:50.272Z,113.50
2019-01-11T11:01:50.236Z,116.90
2019-01-11T11:02:50.250Z,110.50
2019-01-11T11:03:50.217Z,123.10
2019-01-11T11:04:50.288Z,108.70
2019-01-11T11:05:50.224Z,112.50
2019-01-11T11:06:50.204Z,93.30
2019-01-11T11:07:50.169Z,115.80
2019-01-11T11:08:50.176Z,118.30
2019-01-11T11:09:50.149Z,118.50
2019-01-11T11:10:50.164Z,110.50
2019-01-11T11:11:50.121Z,123.40
2019-01-11T11:12:50.131Z,99.80
2019-01-11T11:13:50.107Z,103.00
2019-01-11T11:14:50.128Z,91.70
2019-01-11T11:15:50.088Z,101.60
2019-01-11T11:16:50.112Z,97.40
2019-01-11T11:17:50.064Z,73.30
2019-01-11T11:18:50.076Z,78.80
2019-01-11T11:19:50.035Z,88.50
2019-01-11T11:20:50.030Z,97.00
2019-01-11T11:21:50.015Z,82.30
2019-01-11T11:22:50.031Z,82.40
2019-01-11T11:23:53.919Z,79.30
2019-01-11T11:24:50.003Z,84.90
2019-01-11T11:25:49.967Z,91.70
2019-01-11T11:26:49.967Z,78.20
2019-01-11T11:27:49.977Z,78.20
2019-01-11T11:28:49.944Z,83.30
2019-01-11T11:29:49.929Z,82.40
2019-01-11T11:30:51.029Z,87.50
2019-01-11T11:31:49.914Z,74.80
2019-01-11T11:32:49.935Z,76.90
2019-01-11T11:33:49.903Z,80.10
2019-01-11T11:34:49.869Z,79.40
2019-01-11T11:35:49.916Z,92.40
2019-01-11T11:36:49.857Z,91.10
2019-01-11T11:37:49.842Z,86.00
2019-01-11T11:38:49.876Z,96.70
2019-01-11T11:39:49.827Z,89.90
2019-01-11T11:40:49.810Z,83.20
2019-01-11T11:41:50.433Z,83.30
2019-01-11T11:42:49.797Z,92.40
2019-01-11T11:43:49.773Z,86.40
2019-01-11T11:44:49.785Z,85.90
2019-01-11T11:45:49.771Z,81.90
2019-01-11T11:46:49.758Z,102.40
2019-01-11T11:47:49.743Z,76.90
2019-01-11T11:48:49.726Z,77.80
2019-01-11T11:49:49.709Z,82.10
2019-01-11T11:50:49.724Z,90.40
2019-01-11T11:51:49.712Z,87.10
2019-01-11T11:52:49.681Z,89.00
2019-01-11T11:53:49.667Z,86.40
2019-01-11T11:54:49.656Z,84.90
2019-01-11T11:55:49.679Z,90.80
2019-01-11T11:56:49.637Z,76.50
2019-01-11T11:57:50.437Z,83.30
2019-01-11T11:58:56.615Z,83.80
2019-01-11T11:59:49.604Z,83.60
2019-01-11T12:00:49.636Z,76.70
2019-01-11T12:01:52.442Z,79.80
2019-01-11T12:02:49.578Z,73.10
2019-01-11T12:03:49.573Z,70.40
2019-01-11T12:04:49.552Z,68.70
2019-01-11T12:05:49.531Z,78.80
2019-01-11T12:06:49.529Z,75.30
2019-01-11T12:07:49.509Z,74.20
2019-01-11T12:08:49.529Z,75.20
2019-01-11T12:09:49.521Z,70.80
2019-01-11T12:10:49.483Z,70.60
2019-01-11T12:11:49.488Z,71.90
2019-01-11T12:12:49.448Z,67.00
2019-01-11T12:13:50.443Z,68.30
2019-01-11T12:14:49.438Z,228.20
2019-01-11T12:15:49.456Z,178.30
2019-01-11T12:16:49.409Z,88.60
2019-01-11T12:17:49.386Z,71.10
2019-01-11T12:18:49.387Z,64.40
2019-01-11T12:19:49.374Z,59.90
2019-01-11T12:20:49.395Z,61.10
2019-01-11T12:21:49.420Z,62.60
2019-01-11T12:22:49.338Z,56.10
2019-01-11T12:23:49.375Z,59.70
2019-01-11T12:24:49.320Z,55.10
2019-01-11T12:25:49.373Z,61.40
2019-01-11T12:26:49.300Z,57.80
2019-01-11T12:27:49.721Z,59.00
2019-01-11T12:28:49.276Z,58.80
2019-01-11T12:29:49.271Z,58.90
2019-01-11T12:30:49.281Z,59.20
2019-01-11T12:31:49.267Z,60.30
2019-01-11T12:32:49.234Z,60.20
2019-01-11T12:33:49.237Z,66.30
2019-01-11T12:34:49.217Z,63.20
2019-01-11T12:35:49.192Z,64.30
2019-01-11T12:36:49.234Z,63.20
2019-01-11T12:37:49.270Z,71.30
2019-01-11T12:38:49.157Z,66.40
2019-01-11T12:39:49.177Z,63.40
2019-01-11T12:40:49.136Z,66.50
2019-01-11T12:41:49.151Z,71.20
2019-01-11T12:42:49.159Z,62.40
2019-01-11T12:43:49.897Z,68.00
2019-01-11T12:44:49.100Z,61.90
2019-01-11T12:45:49.106Z,85.60
2019-01-11T12:46:49.065Z,102.30
2019-01-11T12:47:49.096Z,74.40
2019-01-11T12:48:49.110Z,62.50
2019-01-11T12:49:49.034Z,63.20
2019-01-11T12:50:49.054Z,56.60
2019-01-11T12:51:53.997Z,61.80
2019-01-11T12:52:49.995Z,57.60
2019-01-11T12:53:49.137Z,54.50